Sylvania, OH

4:39 PM EST on February 24, 2017 (GMT -0500)
Lambertville

Weather History for KDUH - March, 2014

Change the Weather History Date:

Thursday, March 27, 2014

  Actual Average (KTOL) Record (KTOL)
Temperature  
Mean Temperature 39 °F -  
Max Temperature 48 °F 50 °F 80 °F (1945)
Min Temperature 30 °F 29 °F 6 °F (1965)
Degree Days  
Heating Degree Days 26    
Moisture  
Dew Point 26 °F    
Average Humidity 62    
Maximum Humidity 81    
Minimum Humidity 52    
Precipitation  
Precipitation 0.00 in - - ()
Sea Level Pressure  
Sea Level Pressure 29.97 in    
Wind  
Wind Speed 8 mph (South)    
Max Wind Speed 18 mph    
Max Gust Speed 31 mph    
Visibility 10 miles    
Events Rain    
Averages and records for this station are not official NWS values.
T = Trace of Precipitation, MM = Missing Value Source: NWS Daily Summary

Daily Weather History Graph

Daily Weather History Graph

Search for Another Location

Airport or City:

Trip Planner

Search our weather history database for the weather conditions in past years. The results will help you decide how hot, cold, wet, or windy it might be!

Date:

Astronomy

Mar. 27, 2014 Rise Set
Actual Time 7:25 AM EDT 7:54 PM EDT
Civil Twilight 6:58 AM EDT 8:22 PM EDT
Nautical Twilight 6:25 AM EDT 8:55 PM EDT
Astronomical Twilight 5:51 AM EDT 9:29 PM EDT
Moon 5:19 AM EDT (3/27) 4:38 PM EDT (3/27)
Length of Visible Light 13h 24m
Length of Day
12h 28m
Waning Crescent, 13% of the Moon is Illuminated
Mar 27
Waning Crescent
Mar 30
New
Apr 7
First Quarter
Apr 15
Full
Apr 22
Last Quarter

Hourly Weather History & Observations

Time (EDT) Temp. Windchill Dew Point Humidity Pressure Visibility Wind Dir Wind Speed Gust Speed Precip Events Conditions
12:15 AM 30.2 °F 25.4 °F 17.6 °F 60% 30.20 in 10.0 mi SE 4.6 mph - N/A   Clear
12:35 AM 30.2 °F 22.6 °F 17.6 °F 60% 30.18 in 10.0 mi SE 8.1 mph - N/A   Mostly Cloudy
12:55 AM 30.2 °F 23.4 °F 17.6 °F 60% 30.18 in 10.0 mi SSE 6.9 mph - N/A   Scattered Clouds
1:15 AM 32.0 °F 26.4 °F 17.6 °F 55% 30.19 in 10.0 mi South 5.8 mph - N/A   Mostly Cloudy
1:35 AM 32.0 °F 26.4 °F 17.6 °F 55% 30.17 in 10.0 mi SSE 5.8 mph - N/A   Overcast
1:55 AM 32.0 °F 24.8 °F 17.6 °F 55% 30.15 in 10.0 mi SSE 8.1 mph - N/A   Overcast
2:15 AM 32.0 °F 25.6 °F 17.6 °F 55% 30.16 in 10.0 mi South 6.9 mph - N/A   Overcast
2:35 AM 32.0 °F 25.6 °F 17.6 °F 55% 30.14 in 10.0 mi South 6.9 mph - N/A   Overcast
2:55 AM 32.0 °F 26.4 °F 17.6 °F 55% 30.13 in 10.0 mi South 5.8 mph - N/A   Overcast
3:15 AM 32.0 °F 25.6 °F 17.6 °F 55% 30.14 in 10.0 mi South 6.9 mph - N/A   Overcast
3:35 AM 32.0 °F 25.6 °F 17.6 °F 55% 30.13 in 10.0 mi South 6.9 mph - N/A   Overcast
3:55 AM 32.0 °F 24.8 °F 17.6 °F 55% 30.13 in 10.0 mi South 8.1 mph - N/A   Scattered Clouds
4:15 AM 32.0 °F 24.8 °F 19.4 °F 60% 30.12 in 10.0 mi South 8.1 mph - N/A   Mostly Cloudy
4:35 AM 32.0 °F 25.6 °F 19.4 °F 60% 30.12 in 10.0 mi South 6.9 mph - N/A   Overcast
4:55 AM 32.0 °F 26.4 °F 19.4 °F 60% 30.11 in 10.0 mi South 5.8 mph - N/A   Mostly Cloudy
5:15 AM 32.0 °F 25.6 °F 19.4 °F 60% 30.10 in 10.0 mi South 6.9 mph - N/A   Overcast
5:35 AM 32.0 °F 24.2 °F 19.4 °F 60% 30.10 in 10.0 mi South 9.2 mph - N/A   Overcast
5:55 AM 32.0 °F 24.8 °F 19.4 °F 60% 30.10 in 10.0 mi South 8.1 mph - N/A   Overcast
6:15 AM 33.8 °F 26.4 °F 19.4 °F 56% 30.10 in 10.0 mi South 9.2 mph - N/A   Overcast
6:35 AM 33.8 °F 25.8 °F 19.4 °F 56% 30.10 in 10.0 mi South 10.4 mph - N/A   Overcast
6:55 AM 33.8 °F 27.7 °F 19.4 °F 56% 30.10 in 10.0 mi South 6.9 mph - N/A   Overcast
7:15 AM 33.8 °F 26.4 °F 19.4 °F 56% 30.09 in 10.0 mi South 9.2 mph - N/A   Overcast
7:35 AM 33.8 °F 27.7 °F 17.6 °F 52% 30.08 in 10.0 mi South 6.9 mph 17.3 mph N/A   Scattered Clouds
7:55 AM 33.8 °F 25.3 °F 19.4 °F 56% 30.08 in 10.0 mi South 11.5 mph 18.4 mph N/A   Mostly Cloudy
8:15 AM 35.6 °F 28.6 °F 19.4 °F 52% 30.09 in 10.0 mi South 9.2 mph 17.3 mph N/A   Overcast
8:35 AM 35.6 °F 28.0 °F 19.4 °F 52% 30.08 in 10.0 mi South 10.4 mph 16.1 mph N/A   Overcast
8:55 AM 35.6 °F 28.6 °F 19.4 °F 52% 30.08 in 10.0 mi South 9.2 mph 17.3 mph N/A   Overcast
9:15 AM 35.6 °F 28.0 °F 19.4 °F 52% 30.07 in 10.0 mi South 10.4 mph 17.3 mph N/A   Overcast
9:35 AM 35.6 °F 27.1 °F 19.4 °F 52% 30.06 in 10.0 mi South 12.7 mph 19.6 mph N/A   Overcast
9:55 AM 35.6 °F 28.0 °F 19.4 °F 52% 30.06 in 10.0 mi South 10.4 mph 23.0 mph N/A   Overcast
10:15 AM 35.6 °F 27.5 °F 21.2 °F 56% 30.05 in 10.0 mi South 11.5 mph - N/A   Overcast
10:35 AM 35.6 °F 28.0 °F 23.0 °F 60% 30.05 in 7.0 mi South 10.4 mph 20.7 mph N/A Rain Light Rain
10:55 AM 35.6 °F 27.5 °F 26.6 °F 70% 30.03 in 4.0 mi SSE 11.5 mph 17.3 mph N/A Rain Light Rain
11:15 AM 33.8 °F 27.0 °F 28.4 °F 81% 30.00 in 7.0 mi SSE 8.1 mph - N/A   Light Drizzle
11:35 AM 35.6 °F 29.2 °F 28.4 °F 75% 30.01 in 10.0 mi South 8.1 mph - N/A   Overcast
11:55 AM 35.6 °F 28.0 °F 28.4 °F 75% 30.01 in 10.0 mi South 10.4 mph - N/A   Light Drizzle
12:15 PM 35.6 °F 28.6 °F 28.4 °F 75% 30.01 in 10.0 mi South 9.2 mph - N/A   Overcast
12:35 PM 37.4 °F 32.1 °F 28.4 °F 70% 30.00 in 10.0 mi South 6.9 mph - N/A   Overcast
12:55 PM 39.2 °F 32.5 °F 28.4 °F 65% 30.00 in 10.0 mi South 10.4 mph - N/A   Overcast
1:15 PM 39.2 °F 31.6 °F 26.6 °F 61% 29.98 in 10.0 mi South 12.7 mph 19.6 mph N/A   Overcast
1:35 PM 41.0 °F 34.7 °F 28.4 °F 61% 29.97 in 10.0 mi SSW 10.4 mph 18.4 mph N/A   Overcast
1:55 PM 42.8 °F 36.2 °F 28.4 °F 57% 29.95 in 10.0 mi South 12.7 mph 20.7 mph N/A   Overcast
2:15 PM 41.0 °F 35.2 °F 28.4 °F 61% 29.94 in 10.0 mi South 9.2 mph 21.9 mph N/A   Overcast
2:35 PM 41.0 °F 33.9 °F 28.4 °F 61% 29.92 in 10.0 mi South 12.7 mph 20.7 mph N/A   Overcast
2:55 PM 42.8 °F 35.4 °F 28.4 °F 57% 29.92 in 10.0 mi South 15.0 mph 21.9 mph N/A   Overcast
3:15 PM 42.8 °F 35.8 °F 28.4 °F 57% 29.91 in 10.0 mi South 13.8 mph 21.9 mph N/A   Overcast
3:35 PM 42.8 °F 34.5 °F 28.4 °F 57% 29.90 in 10.0 mi SSW 18.4 mph 25.3 mph N/A   Overcast
3:55 PM 42.8 °F 37.0 °F 30.2 °F 61% 29.89 in 10.0 mi South 10.4 mph 24.2 mph N/A   Overcast
4:15 PM 42.8 °F 37.0 °F 30.2 °F 61% 29.89 in 10.0 mi SSW 10.4 mph 20.7 mph N/A   Overcast
4:35 PM 41.0 °F 34.7 °F 32.0 °F 70% 29.89 in 10.0 mi SSW 10.4 mph 19.6 mph N/A Rain Rain
4:55 PM 41.0 °F 35.8 °F 32.0 °F 70% 29.87 in 10.0 mi South 8.1 mph - N/A   Light Drizzle
5:15 PM 41.0 °F 33.9 °F 33.8 °F 76% 29.87 in 10.0 mi South 12.7 mph 17.3 mph N/A Rain Rain
5:35 PM 41.0 °F 35.2 °F 33.8 °F 76% 29.86 in 10.0 mi South 9.2 mph 18.4 mph N/A   Light Drizzle
5:55 PM 41.0 °F 35.2 °F 33.8 °F 76% 29.85 in 10.0 mi South 9.2 mph - N/A Rain Light Rain
6:15 PM 41.0 °F 35.2 °F 33.8 °F 76% 29.84 in 10.0 mi South 9.2 mph - N/A Rain Light Rain
6:35 PM 41.0 °F 37.1 °F 33.8 °F 76% 29.82 in 10.0 mi SSE 5.8 mph - N/A   Overcast
6:55 PM 41.0 °F 35.8 °F 33.8 °F 76% 29.80 in 10.0 mi SSE 8.1 mph - N/A   Overcast
7:15 PM 41.0 °F 35.8 °F 32.0 °F 70% 29.78 in 10.0 mi SSE 8.1 mph 17.3 mph N/A   Overcast
7:35 PM 41.0 °F 35.8 °F 32.0 °F 70% 29.77 in 10.0 mi SSE 8.1 mph - N/A   Overcast
7:55 PM 42.8 °F 38.0 °F 32.0 °F 66% 29.76 in 10.0 mi SSE 8.1 mph - N/A   Overcast
8:15 PM 42.8 °F 38.0 °F 30.2 °F 61% 29.75 in 10.0 mi SSE 8.1 mph 16.1 mph N/A   Overcast
8:35 PM 42.8 °F 37.5 °F 30.2 °F 61% 29.74 in 10.0 mi SSE 9.2 mph - N/A   Overcast
8:55 PM 42.8 °F 37.5 °F 30.2 °F 61% 29.74 in 10.0 mi SSE 9.2 mph - N/A   Overcast
9:15 PM 44.6 °F 39.7 °F 30.2 °F 57% 29.74 in 10.0 mi South 9.2 mph - N/A   Overcast
9:35 PM 44.6 °F 39.7 °F 32.0 °F 61% 29.75 in 10.0 mi SSE 9.2 mph - N/A   Overcast
9:55 PM 44.6 °F 39.7 °F 32.0 °F 61% 29.75 in 10.0 mi South 9.2 mph - N/A   Overcast
10:15 PM 46.4 °F 41.1 °F 33.8 °F 62% 29.75 in 10.0 mi South 11.5 mph 21.9 mph N/A Rain Light Rain
10:35 PM 48.2 °F - 35.6 °F 62% 29.74 in 10.0 mi South 13.8 mph 31.1 mph N/A   Overcast
10:55 PM 46.4 °F 40.1 °F 37.4 °F 71% 29.74 in 7.0 mi South 15.0 mph 27.6 mph N/A Rain Rain
11:15 PM 44.6 °F 39.2 °F 37.4 °F 76% 29.72 in 10.0 mi South 10.4 mph 24.2 mph N/A Rain Light Rain
11:35 PM 44.6 °F 37.4 °F 39.2 °F 81% 29.71 in 10.0 mi South 16.1 mph 21.9 mph N/A Rain Light Rain
11:55 PM 44.6 °F 38.4 °F 37.4 °F 76% 29.70 in 10.0 mi South 12.7 mph 19.6 mph N/A   Overcast